George/Botha, South Africa

2:38 PM SAST on January 18, 2017 (GMT +0200)
George | | Change Station

Elev 633 ft 34.00 °S, 22.38 °E | Updated 38 minutes ago

Clear
Clear
99 °F
Feels Like 96 °F
N
10
Wind Variable Wind from SSE

Today
High -- | Low -- °F
--% Chance of Precip.
Yesterday
High -- | Low -- °F
Precip. -- in
Pressure 29.65 in
Visibility -9999.0 miles
Clouds
Heat Index 96 °F
Dew Point 54 °F
Humidity 22%
Rainfall 0.00 in
Snow Depth Not available.
5:37 AM 7:43 PM
Waning Gibbous, 63% visible
METAR FAGG 181200Z 16009KT CAVOK 37/12 Q1004
Pressure 29.65 in
Visibility -9999.0 miles
Clouds
Heat Index 96 °F
Dew Point 54 °F
Humidity 22%
Rainfall 0.00 in
Snow Depth Not available.
5:37 AM 7:43 PM
Waning Gibbous, 63% visible
METAR FAGG 181200Z 16009KT CAVOK 37/12 Q1004

Get Your Daily Forecast Email!

Thanks for signing up!

Be on the lookout for a verification email in your inbox.

You'll start receiving the daily forecast at 8 AM.

×

10-Day Weather Forecast

No radar image for this location.
×

Almanac

Astronomy

Jan. 18, 2017 Rise Set
Actual Time
Civil Twilight
Nautical Twilight
Astronomical Twilight
Moon
Length of Visible Light
Length of Day
Tomorrow will be .
, % of the Moon is Illuminated

Today's Extremes

Country Highs Country Lows

Community

WunderPhotos

Upload Photos

1,962,540 photos uploaded!

WunderBlog® & News

Nearby

Air Quality

  Air Quality AQ Index Pollutant
Not available.

Snow Depth

Station Depth Elevation

Earthquake Activity

City Distance Mag. Time & Date
Minimum magnitude displayed is 2.5.

Coastal Water Temperatures

Place Temperature

Stations

Nearby Weather Stations

Station Location Temp. Windchill Dew Point Humidity Wind Precip. Elev Updated Type